Time;durP1;ratioP1;P1;durP2;ratioP2;P2;SDS_P1;SDS_P2;PMS_P1;PMS_P2;Temp;Humidity;BMP_temperature;BMP_pressure;BME280_temperature;BME280_humidity;BME280_pressure;Samples;Min_cycle;Max_cycle;Signal;HPM_P1;HPM_P2
2022/07/22 00:00:09;;;;;;;10.57;5.18;;;20.30;99.90;;;20.78;68.74;102127.50;5053019;28;20079;-71
2022/07/22 00:02:37;;;;;;;;;;;20.40;99.90;;;20.75;68.59;102137.47;5053274;28;20548;-71
2022/07/22 00:05:10;;;;;;;11.13;4.60;;;20.50;99.90;;;20.54;68.53;102106.59;5052734;28;19940;-71
2022/07/22 00:07:38;;;;;;;11.48;4.32;;;20.40;99.90;;;20.66;69.46;102134.09;5052880;28;20526;-70
2022/07/22 00:10:10;;;;;;;13.43;4.70;;;20.30;99.90;;;20.77;70.10;102133.78;5052532;28;20067;-70
2022/07/22 00:12:40;;;;;;;9.65;4.15;;;20.30;99.90;;;20.83;70.64;102127.38;5051594;28;20495;-70
2022/07/22 00:15:10;;;;;;;11.07;4.70;;;20.40;99.90;;;20.79;69.90;102128.41;5052475;28;20479;-71
2022/07/22 00:17:39;;;;;;;11.10;4.28;;;20.30;99.90;;;20.68;69.66;102121.47;5052663;28;20075;-70
2022/07/22 00:20:09;;;;;;;10.82;4.30;;;20.30;99.90;;;20.76;69.37;102126.66;5052729;28;20055;-71
2022/07/22 00:22:38;;;;;;;17.65;4.90;;;20.30;99.90;;;20.77;69.08;102127.56;5052542;28;20037;-70
2022/07/22 00:25:08;;;;;;;9.75;4.50;;;20.30;99.90;;;20.73;69.60;102115.09;5052608;28;20044;-70
2022/07/22 00:27:36;;;;;;;10.82;4.40;;;20.30;99.90;;;20.78;69.21;102116.75;5052738;28;20048;-70
2022/07/22 00:30:07;;;;;;;10.90;3.92;;;20.30;99.90;;;20.72;68.96;102095.38;5051314;28;20044;-71
2022/07/22 00:32:37;;;;;;;9.63;4.22;;;20.30;99.90;;;20.84;70.01;102108.50;5085012;28;20508;-71
2022/07/22 00:35:07;;;;;;;10.82;4.47;;;20.40;99.90;;;20.86;69.00;102109.34;5051344;28;20073;-70
2022/07/22 00:37:36;;;;;;;9.18;4.57;;;20.40;99.90;;;21.02;68.65;102107.16;5051366;28;20053;-71
2022/07/22 00:40:06;;;;;;;11.20;4.18;;;20.50;99.90;;;20.88;68.55;102099.44;5052480;28;20045;-71
2022/07/22 00:42:35;;;;;;;9.88;4.38;;;20.50;99.90;;;21.02;68.14;102105.34;5054058;28;20049;-70
2022/07/22 00:45:06;;;;;;;8.35;4.10;;;20.50;99.90;;;20.95;68.07;102098.34;5055932;28;20467;-70
2022/07/22 00:47:36;;;;;;;12.00;4.88;;;20.60;99.90;;;20.89;68.00;102100.28;5056333;28;20120;-71
2022/07/22 00:50:06;;;;;;;11.10;3.95;;;20.50;99.90;;;21.02;67.72;102101.78;5056154;28;20045;-70
2022/07/22 00:52:35;;;;;;;;;;;20.60;99.90;;;20.97;66.91;102096.47;5055405;28;20103;-71
2022/07/22 00:55:06;;;;;;;12.90;5.10;;;20.60;99.90;;;20.93;67.04;102097.50;5071645;28;19927;-71
2022/07/22 00:57:35;;;;;;;11.15;4.63;;;20.50;99.90;;;20.65;66.95;102046.25;5055740;28;20115;-70
2022/07/22 01:00:09;;;;;;;7.85;3.85;;;20.50;99.90;;;20.72;68.13;102099.88;5056064;28;20044;-71
2022/07/22 01:02:37;;;;;;;10.00;4.07;;;20.40;99.90;;;20.79;68.03;102096.97;5054561;28;20106;-71
2022/07/22 01:05:07;;;;;;;10.93;4.38;;;20.40;99.90;;;20.77;67.94;102100.66;5055895;28;20051;-71
2022/07/22 01:07:37;;;;;;;9.30;4.22;;;20.40;99.90;;;20.76;67.70;102090.81;5055730;28;20044;-70
2022/07/22 01:10:07;;;;;;;9.27;4.83;;;20.40;99.90;;;20.74;67.74;102098.03;5055568;28;20040;-71
2022/07/22 01:12:36;;;;;;;9.15;3.85;;;20.30;99.90;;;20.69;68.29;102100.84;5054630;28;20291;-70
2022/07/22 01:15:08;;;;;;;9.73;4.35;;;20.30;99.90;;;20.66;68.46;102091.06;5055754;28;20041;-70
2022/07/22 01:17:37;;;;;;;10.93;4.38;;;20.20;99.90;;;20.65;68.51;102096.47;5054699;28;20114;-71
2022/07/22 01:20:09;;;;;;;12.93;4.40;;;20.20;99.90;;;20.59;68.36;102089.47;5054498;28;20098;-71
2022/07/22 01:22:37;;;;;;;13.65;3.97;;;20.10;99.90;;;20.50;68.01;102087.00;5054459;28;20189;-71
2022/07/22 01:25:06;;;;;;;9.82;4.03;;;20.20;99.90;;;20.57;68.04;102090.41;5070964;28;20041;-71
2022/07/22 01:27:35;;;;;;;8.02;3.75;;;20.10;99.90;;;20.57;68.53;102094.00;5054163;28;20045;-70
2022/07/22 01:30:06;;;;;;;10.10;3.80;;;20.10;99.90;;;20.38;68.22;102054.19;5053751;28;20083;-71
2022/07/22 01:32:34;;;;;;;7.38;3.88;;;20.20;99.90;;;20.48;68.39;102094.22;5055447;28;20079;-70
2022/07/22 01:35:04;;;;;;;8.48;4.40;;;20.10;99.90;;;20.40;68.81;102080.06;5055014;28;20451;-71
2022/07/22 01:37:35;;;;;;;9.88;4.30;;;20.10;99.90;;;20.48;68.17;102086.16;5054093;28;20049;-71
2022/07/22 01:40:05;;;;;;;7.05;3.60;;;20.00;99.90;;;20.63;67.14;102091.13;5053725;28;20076;-71
2022/07/22 01:42:34;;;;;;;8.32;4.00;;;20.20;99.90;;;20.49;67.55;102081.66;5055612;28;20045;-71
2022/07/22 01:45:02;;;;;;;8.25;3.95;;;20.10;99.90;;;20.49;67.25;102081.66;5054993;28;20502;-71
2022/07/22 01:47:31;;;;;;;7.20;3.90;;;20.10;99.90;;;20.43;67.13;102085.41;5055230;28;20052;-71
2022/07/22 01:49:59;;;;;;;7.68;3.97;;;20.00;99.90;;;20.43;66.49;102088.09;5053473;28;20037;-71
2022/07/22 01:52:27;;;;;;;8.52;3.72;;;20.00;99.90;;;20.32;66.91;102076.72;5070385;28;20062;-71
2022/07/22 01:54:57;;;;;;;6.25;3.88;;;19.90;99.90;;;20.23;66.70;102062.59;5055030;28;20048;-71
2022/07/22 01:57:26;;;;;;;8.70;3.50;;;19.90;99.90;;;20.23;66.54;102079.63;5053382;28;20057;-71
2022/07/22 01:59:54;;;;;;;5.57;3.67;;;19.90;99.90;;;20.37;66.54;102082.84;5053660;28;20304;-70
2022/07/22 02:02:23;;;;;;;7.75;4.25;;;19.90;99.90;;;20.38;66.20;102084.59;5053652;28;20098;-70
2022/07/22 02:04:53;;;;;;;8.85;4.03;;;19.90;99.90;;;20.40;66.00;102079.22;5054756;28;20075;-70
2022/07/22 02:07:21;;;;;;;8.25;3.75;;;20.00;99.90;;;20.40;66.24;102071.16;5054825;28;20059;-71
2022/07/22 02:09:50;;;;;;;8.23;4.50;;;20.00;99.90;;;20.37;65.96;102074.78;5053431;28;20426;-71
2022/07/22 02:12:20;;;;;;;10.80;4.78;;;20.00;99.90;;;20.33;65.82;102070.41;5053723;28;20044;-71
2022/07/22 02:14:49;;;;;;;7.38;4.05;;;19.90;99.90;;;20.36;65.41;102075.69;5053511;28;20041;-70
2022/07/22 02:17:17;;;;;;;11.43;5.18;;;20.00;99.90;;;20.37;66.28;102072.09;5053480;28;20041;-71
2022/07/22 02:19:46;;;;;;;13.15;4.70;;;19.90;99.90;;;20.37;66.49;102069.41;5053306;28;20418;-70
2022/07/22 02:22:16;;;;;;;8.02;4.13;;;19.90;99.90;;;20.43;66.75;102068.38;5053186;28;20502;-70
2022/07/22 02:24:47;;;;;;;9.77;4.40;;;20.00;99.90;;;20.42;66.44;102075.53;5053223;28;20495;-70
2022/07/22 02:27:15;;;;;;;11.65;4.43;;;20.00;99.90;;;20.36;66.33;102073.00;5053186;28;20071;-71
2022/07/22 02:29:45;;;;;;;9.48;3.90;;;20.00;99.90;;;20.37;65.76;102072.09;5053042;28;20044;-70
2022/07/22 02:32:13;;;;;;;9.18;4.30;;;19.90;99.90;;;20.35;65.20;102070.38;5053125;28;20491;-71
2022/07/22 02:34:42;;;;;;;8.55;4.35;;;19.90;99.90;;;20.38;65.38;102071.16;5053294;28;20048;-71
2022/07/22 02:37:12;;;;;;;7.90;4.15;;;20.00;99.90;;;20.30;65.76;102059.75;5052993;28;20067;-71
2022/07/22 02:39:40;;;;;;;13.52;4.38;;;19.90;99.90;;;20.31;65.99;102053.44;5052576;28;20094;-70
2022/07/22 02:42:09;;;;;;;9.70;4.53;;;19.90;99.90;;;20.31;66.51;102061.50;5054053;28;20453;-71
2022/07/22 02:44:38;;;;;;;11.13;4.45;;;19.90;99.90;;;19.90;66.09;101977.47;5052856;28;20495;-71
2022/07/22 02:47:08;;;;;;;9.13;4.15;;;19.80;99.90;;;20.32;66.17;102055.22;5052750;28;20186;-70
2022/07/22 02:49:37;;;;;;;;;;;19.90;99.90;;;20.29;66.67;102044.53;5086686;28;20399;-71
2022/07/22 02:52:06;;;;;;;10.18;4.85;;;19.90;99.90;;;20.20;66.63;102028.66;5069361;28;20267;-70
2022/07/22 02:54:35;;;;;;;9.70;4.50;;;19.90;99.90;;;20.25;66.48;102031.19;5052788;28;20088;-70
2022/07/22 02:57:03;;;;;;;10.35;4.55;;;19.90;99.90;;;20.15;67.16;102017.09;5052299;28;20083;-70
2022/07/22 02:59:31;;;;;;;12.30;4.40;;;19.90;99.90;;;20.32;66.77;102049.84;5053861;28;20045;-70
2022/07/22 03:02:00;;;;;;;10.93;4.45;;;19.90;99.90;;;20.28;66.35;102053.53;5053726;28;20082;-71
2022/07/22 03:04:30;;;;;;;13.90;4.78;;;19.90;99.90;;;20.25;66.56;102048.22;5051959;28;20095;-70
2022/07/22 03:06:59;;;;;;;8.65;4.35;;;19.80;99.90;;;18.51;66.69;101742.91;5053524;28;20041;-70
2022/07/22 03:09:27;;;;;;;8.07;4.32;;;19.80;99.90;;;20.31;66.60;102049.88;5069001;28;20033;-70
2022/07/22 03:11:56;;;;;;;10.68;4.45;;;19.90;99.90;;;20.30;66.76;102053.50;5085958;28;20049;-71
2022/07/22 03:14:24;;;;;;;11.98;4.88;;;19.90;99.90;;;20.33;67.04;102053.41;5052296;28;20415;-70
2022/07/22 03:16:53;;;;;;;12.80;4.90;;;19.90;99.90;;;20.38;67.72;102055.03;5052176;28;20045;-70
2022/07/22 03:19:22;;;;;;;12.27;4.40;;;19.90;99.90;;;20.31;68.44;102049.88;5051884;28;20079;-70
2022/07/22 03:21:54;;;;;;;12.48;4.50;;;19.90;99.90;;;20.30;68.74;102059.75;5052232;28;20063;-70
2022/07/22 03:24:23;;;;;;;11.82;4.75;;;19.90;99.90;;;20.19;68.87;102053.75;5052180;28;20072;-70
2022/07/22 03:26:51;;;;;;;11.30;4.57;;;19.80;99.90;;;20.20;68.74;102058.22;5051748;28;20044;-70
2022/07/22 03:29:19;;;;;;;9.40;4.25;;;19.70;99.90;;;20.23;68.52;102058.13;5052026;28;20429;-70
2022/07/22 03:31:48;;;;;;;9.20;4.32;;;19.80;99.90;;;20.21;68.50;102054.59;5051911;28;20041;-70
2022/07/22 03:34:21;;;;;;;7.97;4.20;;;19.80;99.90;;;20.23;68.71;102057.22;5051987;28;20076;-71
2022/07/22 03:36:58;;;;;;;10.20;4.45;;;19.80;99.90;;;20.23;68.31;102052.75;5052105;28;20103;-70
2022/07/22 03:39:26;;;;;;;8.73;4.10;;;19.70;99.90;;;20.20;69.08;102054.63;5053262;28;20049;-70
2022/07/22 03:41:54;;;;;;;11.00;4.70;;;19.80;99.90;;;20.13;69.74;102053.00;5051922;28;20076;-70
2022/07/22 03:44:24;;;;;;;14.32;5.07;;;19.70;99.90;;;20.16;69.99;102059.19;5051798;28;20045;-70
2022/07/22 03:46:52;;;;;;;13.02;5.03;;;19.70;99.90;;;20.13;69.98;102061.91;5051876;28;20088;-70
2022/07/22 03:49:21;;;;;;;9.23;4.57;;;19.60;99.90;;;19.83;70.47;102019.69;5051721;28;20411;-71
2022/07/22 03:51:49;;;;;;;11.45;4.93;;;19.60;99.90;;;20.04;71.34;102067.53;5051800;28;20041;-70
2022/07/22 03:54:20;;;;;;;10.88;5.35;;;19.50;99.90;;;19.96;72.27;102063.25;5051764;28;20454;-70
2022/07/22 03:56:49;;;;;;;9.82;5.15;;;19.50;99.90;;;19.99;72.41;102065.88;5051172;28;20056;-70
2022/07/22 03:59:17;;;;;;;11.63;5.05;;;19.50;99.90;;;19.98;71.82;102061.41;5051760;28;20079;-70
2022/07/22 04:01:46;;;;;;;9.57;4.40;;;19.50;99.90;;;19.95;71.35;102065.06;5051656;28;20057;-71
2022/07/22 04:04:15;;;;;;;11.57;4.97;;;19.50;99.90;;;19.87;71.75;102052.72;5051655;28;20094;-70
2022/07/22 04:06:45;;;;;;;11.98;4.72;;;19.50;99.90;;;19.99;72.03;102064.09;5068442;28;20056;-71
2022/07/22 04:09:22;;;;;;;10.15;4.18;;;19.50;99.90;;;19.84;72.49;102061.72;5051529;28;20102;-70
2022/07/22 04:11:51;;;;;;;8.73;4.20;;;19.50;99.90;;;19.93;72.30;102066.03;5051587;28;20049;-70
2022/07/22 04:14:20;;;;;;;9.68;4.15;;;19.50;99.90;;;19.97;72.67;102060.56;5051529;28;20048;-70
2022/07/22 04:16:48;;;;;;;7.80;4.03;;;19.50;99.90;;;19.11;72.67;101904.16;5054551;28;20052;-70
2022/07/22 04:19:17;;;;;;;7.50;4.10;;;19.50;99.90;;;19.95;72.60;102056.13;5056619;28;20041;-70
2022/07/22 04:21:52;;;;;;;8.35;4.60;;;19.50;99.90;;;19.82;72.69;102025.13;5056707;28;20048;-70
2022/07/22 04:24:23;;;;;;;9.50;4.38;;;19.60;99.90;;;20.00;73.38;102060.47;5056051;28;20115;-70
2022/07/22 04:26:51;;;;;;;9.05;4.50;;;19.60;99.90;;;20.08;73.82;102063.84;5055525;28;20491;-70
2022/07/22 04:29:20;;;;;;;9.27;4.13;;;19.70;99.90;;;19.96;72.96;102052.50;5055685;28;20510;-70
2022/07/22 04:31:48;;;;;;;10.02;4.70;;;19.60;99.90;;;19.91;72.64;102049.06;5055086;28;20052;-71
2022/07/22 04:34:19;;;;;;;12.18;4.60;;;19.50;99.90;;;19.91;73.08;102052.63;5055064;28;20072;-71
2022/07/22 04:36:49;;;;;;;9.15;3.92;;;19.50;99.90;;;19.94;73.08;102054.38;5055587;28;20400;-70
2022/07/22 04:39:18;;;;;;;7.85;3.63;;;19.50;99.90;;;19.91;73.17;102036.53;5055232;28;20051;-70
2022/07/22 04:41:56;;;;;;;8.70;4.35;;;19.50;99.90;;;19.97;72.71;102033.69;5055379;28;20376;-70
2022/07/22 04:44:25;;;;;;;7.28;3.97;;;19.60;99.90;;;20.18;72.42;102054.69;5054813;28;20054;-70
2022/07/22 04:46:53;;;;;;;11.52;4.32;;;19.70;99.90;;;20.22;71.66;102053.69;5055140;28;20247;-70
2022/07/22 04:49:22;;;;;;;10.48;4.40;;;19.80;99.90;;;20.30;71.33;102050.81;5054736;28;20080;-70
2022/07/22 04:51:50;;;;;;;8.50;4.15;;;19.90;99.90;;;20.30;71.55;102051.69;5055148;28;20076;-71
2022/07/22 04:54:28;;;;;;;7.75;4.20;;;19.90;99.90;;;20.32;72.14;102051.66;5055078;28;20044;-70
2022/07/22 04:56:59;;;;;;;;;;;19.90;99.90;;;20.36;72.30;102059.56;5054902;28;20454;-70
2022/07/22 04:59:28;;;;;;;12.75;4.35;;;19.90;99.90;;;20.22;71.90;102021.44;5055852;28;20398;-70
2022/07/22 05:01:57;;;;;;;10.35;4.38;;;19.90;99.90;;;20.40;72.59;102044.28;5054359;28;20052;-71
2022/07/22 05:04:25;;;;;;;6.40;3.92;;;20.00;99.90;;;20.47;73.52;102044.06;5054754;28;20076;-70
2022/07/22 05:06:54;;;;;;;8.45;4.22;;;20.00;99.90;;;20.50;73.42;102041.28;5054750;28;20047;-70
2022/07/22 05:09:23;;;;;;;10.07;3.83;;;20.10;99.90;;;20.51;73.02;102044.88;5054672;28;20136;-70
2022/07/22 05:11:52;;;;;;;10.65;3.85;;;20.10;99.90;;;20.66;72.81;102039.97;5054426;28;20091;-70
2022/07/22 05:14:24;;;;;;;11.27;4.35;;;20.20;99.90;;;20.75;72.58;102041.50;5054836;28;20045;-70
2022/07/22 05:16:52;;;;;;;10.63;4.07;;;20.30;99.90;;;20.71;73.14;102044.34;5054270;28;20049;-70
2022/07/22 05:19:21;;;;;;;8.82;4.10;;;20.30;99.90;;;20.77;73.24;102036.97;5054525;28;20044;-70
2022/07/22 05:21:50;;;;;;;7.05;4.25;;;20.30;99.90;;;20.57;73.31;102002.56;5054615;28;20041;-70
2022/07/22 05:24:20;;;;;;;6.97;4.57;;;20.40;99.90;;;20.85;73.62;102045.69;5054129;28;20044;-70
2022/07/22 05:26:48;;;;;;;7.28;4.15;;;20.50;99.90;;;20.88;73.38;102050.13;5054224;28;20449;-70
2022/07/22 05:29:16;;;;;;;7.47;4.32;;;20.50;99.90;;;20.90;72.28;102050.97;5053444;28;20049;-70
2022/07/22 05:31:46;;;;;;;10.77;4.60;;;20.50;99.90;;;20.95;72.33;102049.91;5054168;28;20072;-70
2022/07/22 05:34:15;;;;;;;10.95;4.80;;;20.50;99.90;;;21.01;72.17;102039.00;5054163;28;20083;-70
2022/07/22 05:36:49;;;;;;;7.82;4.78;;;20.70;99.90;;;21.01;73.64;102048.88;5053787;28;20049;-70
2022/07/22 05:39:18;;;;;;;9.77;4.93;;;20.60;99.90;;;20.93;73.51;102051.75;5053950;28;20509;-70
2022/07/22 05:41:46;;;;;;;10.43;4.55;;;20.50;99.90;;;20.57;75.13;102036.63;5054038;28;20402;-70
2022/07/22 05:44:19;;;;;;;9.80;5.22;;;20.20;99.90;;;20.60;75.34;102045.50;5054989;28;20048;-70
2022/07/22 05:46:49;;;;;;;11.65;4.95;;;20.10;99.90;;;20.65;74.37;102042.69;5053837;28;20045;-70
2022/07/22 05:49:19;;;;;;;8.95;4.85;;;20.20;99.90;;;20.79;74.15;102048.56;5053737;28;20517;-70
2022/07/22 05:51:57;;;;;;;8.65;3.83;;;20.30;99.90;;;20.87;72.30;102033.09;5070294;28;20433;-70
2022/07/22 05:54:26;;;;;;;6.32;4.25;;;20.50;99.90;;;21.20;70.51;102050.09;5054715;28;20051;-80
2022/07/22 05:56:54;;;;;;;10.65;4.28;;;20.70;99.90;;;21.29;68.78;102045.34;5054633;28;20088;-71
2022/07/22 05:59:23;;;;;;;8.00;3.70;;;20.90;99.90;;;21.12;67.47;102050.34;5054432;28;20049;-70
2022/07/22 06:01:54;;;;;;;10.13;4.80;;;20.80;99.90;;;21.15;67.86;102025.16;5053528;28;20045;-74
2022/07/22 06:04:53;;;;;;;10.43;4.72;;;20.90;99.90;;;21.29;65.98;102037.25;5051023;28;20370;-79
2022/07/22 06:07:22;;;;;;;;;;;21.00;99.90;;;21.49;64.58;102042.03;5054050;28;20049;-71
2022/07/22 06:09:57;;;;;;;11.27;4.55;;;21.20;99.90;;;21.64;64.05;102052.34;5053640;28;19921;-72
2022/07/22 06:12:26;;;;;;;9.30;3.83;;;21.30;99.90;;;21.72;63.88;102049.44;5053401;28;20052;-66
2022/07/22 06:14:54;;;;;;;12.77;4.90;;;21.40;99.90;;;21.76;63.48;102038.50;5053214;28;20048;-66
2022/07/22 06:17:24;;;;;;;5.60;3.53;;;21.40;99.90;;;21.85;63.46;102030.16;5053240;28;20049;-65
2022/07/22 06:19:53;;;;;;;7.45;3.92;;;21.50;99.90;;;21.91;62.81;102045.25;5053067;28;20068;-64
2022/07/22 06:22:22;;;;;;;6.10;3.30;;;21.60;99.90;;;22.00;62.78;102043.13;5053119;28;20458;-65
2022/07/22 06:24:51;;;;;;;9.05;3.65;;;21.60;99.90;;;22.09;62.60;102050.00;5053215;28;20057;-71
2022/07/22 06:27:19;;;;;;;6.78;3.20;;;21.70;99.90;;;22.14;62.28;102045.38;5054384;28;20125;-70
2022/07/22 06:29:50;;;;;;;7.22;3.08;;;21.80;99.90;;;22.14;62.14;102046.22;5053060;28;20099;-70
2022/07/22 06:32:18;;;;;;;5.95;3.40;;;21.80;99.90;;;22.30;61.89;102054.69;5053066;28;20143;-70
2022/07/22 06:34:50;;;;;;;7.28;2.92;;;21.90;99.90;;;22.30;61.03;102052.88;5053022;28;20075;-65
2022/07/22 06:37:18;;;;;;;8.43;3.40;;;22.00;99.90;;;22.36;61.40;102055.38;5054110;28;20095;-69
2022/07/22 06:39:57;;;;;;;7.28;3.63;;;22.00;99.90;;;22.37;60.46;102057.16;5051833;28;20056;-69
2022/07/22 06:42:34;;;;;;;10.38;4.00;;;22.10;99.90;;;22.32;60.52;102058.22;5052801;28;20091;-69
2022/07/22 06:45:27;;;;;;;5.97;3.03;;;22.00;99.90;;;22.41;60.42;102057.91;5052656;28;20107;-69
2022/07/22 06:47:56;;;;;;;8.45;3.60;;;22.00;99.90;;;22.31;60.01;102042.97;5054146;28;20163;-69
2022/07/22 06:50:26;;;;;;;4.50;3.28;;;22.10;99.90;;;22.43;60.06;102065.00;5052829;28;20041;-69
2022/07/22 06:52:56;;;;;;;6.03;3.33;;;22.10;99.90;;;22.50;59.41;102059.41;5052483;28;20079;-69
2022/07/22 06:55:25;;;;;;;7.40;3.10;;;22.10;99.90;;;22.50;59.26;102064.78;5086142;28;20036;-69
2022/07/22 06:58:01;;;;;;;5.20;2.92;;;22.20;99.90;;;21.94;59.72;101959.78;5069257;28;20053;-69
2022/07/22 07:00:29;;;;;;;8.73;3.15;;;22.20;99.90;;;22.48;59.47;102061.28;5052541;28;20048;-69
2022/07/22 07:03:21;;;;;;;6.63;3.30;;;22.20;99.90;;;22.62;59.80;102067.09;5050312;28;20061;-69
2022/07/22 07:06:10;;;;;;;6.32;3.08;;;22.20;99.90;;;22.53;59.31;102068.25;5052523;28;20067;-69
2022/07/22 07:08:59;;;;;;;7.20;3.10;;;22.20;99.90;;;22.58;59.70;102066.34;5052947;28;20052;-69
2022/07/22 07:11:29;;;;;;;5.57;3.10;;;22.20;99.90;;;22.40;58.62;102043.56;5053626;28;20063;-69
2022/07/22 07:13:58;;;;;;;5.95;3.35;;;22.20;99.90;;;22.51;58.52;102053.97;5052280;28;20037;-69
2022/07/22 07:16:26;;;;;;;8.52;3.47;;;22.20;99.90;;;22.61;58.60;102049.19;5053608;28;20056;-69
2022/07/22 07:18:55;;;;;;;5.70;3.15;;;22.30;99.90;;;22.70;59.07;102056.94;5069043;28;20049;-69
2022/07/22 07:21:25;;;;;;;4.80;2.65;;;22.30;99.90;;;22.66;57.87;102056.16;5053505;28;20569;-69
2022/07/22 07:23:54;;;;;;;5.45;2.78;;;22.40;99.90;;;22.64;57.50;102060.72;5052157;28;20067;-69
2022/07/22 07:26:24;;;;;;;6.20;3.10;;;22.30;99.90;;;22.64;57.01;102059.84;5052556;28;20063;-69
2022/07/22 07:28:53;;;;;;;5.50;3.10;;;22.30;99.90;;;22.67;56.73;102048.94;5068713;28;20114;-69
2022/07/22 07:31:42;;;;;;;5.00;3.05;;;22.40;99.90;;;22.65;56.88;102057.09;5053041;28;20056;-69
2022/07/22 07:34:16;;;;;;;4.28;2.97;;;22.30;99.90;;;22.71;56.94;102050.59;5052168;28;20111;-69
2022/07/22 07:36:45;;;;;;;3.20;2.60;;;22.30;99.90;;;22.12;56.70;101960.97;5051913;28;20049;-69
2022/07/22 07:39:15;;;;;;;4.80;2.90;;;22.30;99.90;;;22.63;57.37;102058.09;5051932;28;20425;-69
2022/07/22 07:41:44;;;;;;;5.55;3.08;;;22.20;99.90;;;22.67;57.14;102052.53;5053498;28;20079;-69
2022/07/22 07:44:18;;;;;;;5.18;2.83;;;22.30;99.90;;;22.69;57.38;102052.47;5068736;28;20126;-69
2022/07/22 07:46:47;;;;;;;4.95;3.00;;;22.30;99.90;;;22.61;56.92;102049.19;5053063;28;20158;-69
2022/07/22 07:49:15;;;;;;;7.40;3.22;;;22.30;99.90;;;22.68;56.53;102040.81;5051835;28;20072;-69
2022/07/22 07:51:45;;;;;;;5.78;2.92;;;22.30;99.90;;;22.50;55.62;102033.31;5051448;28;20510;-69
2022/07/22 07:54:14;;;;;;;5.88;3.22;;;22.30;99.90;;;22.57;57.02;102028.63;5052605;28;20483;-70
2022/07/22 07:56:45;;;;;;;5.00;3.33;;;22.30;99.90;;;22.70;57.05;102049.72;5051462;28;20045;-70
2022/07/22 07:59:16;;;;;;;3.67;2.95;;;22.30;99.90;;;22.57;54.92;102052.91;5051747;28;20052;-70
2022/07/22 08:01:59;;;;;;;3.67;2.65;;;22.30;99.90;;;22.62;55.73;102048.22;5051723;28;20057;-69
2022/07/22 08:04:30;;;;;;;5.43;2.85;;;22.30;99.90;;;22.68;56.19;102045.31;5051778;28;20045;-70
2022/07/22 08:07:08;;;;;;;6.07;3.15;;;22.30;99.90;;;22.40;55.53;102039.97;5068435;28;20190;-69
2022/07/22 08:09:39;;;;;;;5.50;2.97;;;22.10;99.90;;;22.55;55.71;102043.97;5051668;28;20049;-69
2022/07/22 08:12:18;;;;;;;9.30;3.75;;;22.20;99.90;;;22.53;56.07;102033.19;5068358;28;20495;-69
2022/07/22 08:15:11;;;;;;;4.45;2.80;;;22.20;99.90;;;22.60;55.88;102028.50;5049302;28;20506;-69
2022/07/22 08:17:53;;;;;;;6.47;3.40;;;22.30;99.90;;;22.40;56.35;102035.47;5051663;28;20406;-69
2022/07/22 08:20:23;;;;;;;6.10;3.25;;;22.10;99.90;;;22.63;56.33;102021.19;5051711;28;20045;-69
2022/07/22 08:22:54;;;;;;;4.90;3.58;;;22.20;99.90;;;21.52;56.43;101831.91;5051570;28;20045;-69
2022/07/22 08:25:24;;;;;;;5.75;3.10;;;22.30;99.90;;;22.71;56.45;102024.50;5051469;28;20059;-69
2022/07/22 08:27:52;;;;;;;4.50;2.92;;;22.40;99.90;;;22.79;56.21;102027.81;5051414;28;20049;-69
2022/07/22 08:30:23;;;;;;;8.18;4.07;;;22.50;99.90;;;22.94;55.67;102023.66;5052676;28;20041;-69
2022/07/22 08:32:51;;;;;;;7.53;3.28;;;22.60;99.90;;;23.05;55.46;102024.16;5051694;28;20049;-69
2022/07/22 08:35:20;;;;;;;7.32;3.92;;;22.70;99.90;;;23.06;55.02;102021.38;5052574;28;20091;-69
2022/07/22 08:37:49;;;;;;;10.07;3.42;;;22.80;99.90;;;23.11;55.40;102023.94;5051729;28;20061;-69
2022/07/22 08:40:19;;;;;;;6.60;3.70;;;22.80;99.90;;;23.07;56.55;102019.56;5051129;28;20087;-69
2022/07/22 08:42:51;;;;;;;7.47;3.70;;;22.80;99.90;;;23.10;56.96;102014.94;5068046;28;20052;-70
2022/07/22 08:45:21;;;;;;;8.65;3.90;;;22.80;99.90;;;23.09;57.70;102012.31;5051350;28;20065;-69
2022/07/22 08:47:52;;;;;;;6.20;3.67;;;22.70;99.90;;;23.00;57.34;102015.31;5051198;28;20053;-69
2022/07/22 08:50:24;;;;;;;7.32;3.70;;;22.70;99.90;;;22.97;57.87;102016.34;5052620;28;20045;-69
2022/07/22 08:53:02;;;;;;;9.75;3.90;;;22.70;99.90;;;23.07;57.00;102020.44;5051309;28;20071;-69
2022/07/22 08:55:33;;;;;;;8.40;3.90;;;22.80;99.90;;;23.11;56.91;102019.38;5051006;28;20123;-70
2022/07/22 08:58:02;;;;;;;8.68;3.60;;;22.80;99.90;;;23.15;57.10;102020.16;5050718;28;20517;-69
2022/07/22 09:00:30;;;;;;;6.00;3.53;;;22.80;99.90;;;23.12;55.90;102021.16;5051074;28;20051;-69
2022/07/22 09:02:59;;;;;;;6.68;3.50;;;22.80;99.90;;;22.99;54.60;102013.56;5052670;28;20053;-69
2022/07/22 09:05:34;;;;;;;5.47;3.40;;;22.80;99.90;;;21.90;57.33;102009.31;5055091;28;20445;-69
2022/07/22 09:08:16;;;;;;;7.07;3.42;;;21.90;99.90;;;22.24;57.90;102001.00;5054368;28;20056;-69
2022/07/22 09:10:59;;;;;;;11.27;3.85;;;21.90;99.90;;;22.65;58.07;102003.13;5054667;28;20413;-69
2022/07/22 09:14:01;;;;;;;7.05;3.58;;;22.20;99.90;;;22.97;57.66;102005.53;5055301;28;20060;-69
2022/07/22 09:16:50;;;;;;;9.95;3.63;;;22.60;99.90;;;23.15;57.15;102001.28;5055202;28;20061;-69
2022/07/22 09:19:33;;;;;;;7.20;3.65;;;22.80;99.90;;;23.24;56.62;102009.00;5055707;28;20045;-69
2022/07/22 09:22:40;;;;;;;7.32;3.80;;;23.00;99.90;;;22.18;56.25;102002.06;5055333;28;20103;-69
2022/07/22 09:25:27;;;;;;;8.27;3.95;;;22.30;99.90;;;21.70;58.86;101992.88;5054514;28;20080;-69
2022/07/22 09:28:18;;;;;;;8.10;3.53;;;21.50;99.90;;;21.32;59.58;101993.22;5055329;28;20067;-69
2022/07/22 09:31:07;;;;;;;5.43;3.13;;;21.20;99.90;;;21.02;61.11;102004.91;5055651;28;20278;-69
2022/07/22 09:33:44;;;;;;;8.13;4.32;;;20.60;99.90;;;21.41;61.44;101969.59;5054125;28;20048;-69
2022/07/22 09:36:20;;;;;;;6.78;3.80;;;21.10;99.90;;;21.82;59.02;102014.09;5053988;28;20045;-69
2022/07/22 09:38:51;;;;;;;8.32;3.65;;;21.40;99.90;;;21.66;58.52;102011.91;5054053;28;20076;-69
2022/07/22 09:41:22;;;;;;;8.02;3.90;;;21.30;99.90;;;21.92;58.31;102015.53;5053947;28;20052;-69
2022/07/22 09:43:52;;;;;;;7.32;3.97;;;21.50;99.90;;;21.23;57.97;101923.53;5055270;28;20041;-69
2022/07/22 09:46:36;;;;;;;9.45;3.75;;;21.50;99.90;;;21.27;59.39;102019.41;5053868;28;20047;-70
2022/07/22 09:49:37;;;;;;;7.97;3.80;;;21.00;99.90;;;21.69;58.99;102027.97;5054541;28;20045;-69
2022/07/22 09:52:32;;;;;;;9.57;3.72;;;21.20;99.90;;;22.14;58.60;102034.59;5053828;28;20045;-69
2022/07/22 09:55:07;;;;;;;9.40;4.20;;;21.70;99.90;;;22.45;57.73;102027.22;5053582;28;20041;-69
2022/07/22 09:57:40;;;;;;;9.43;3.83;;;22.00;99.90;;;22.42;57.02;102020.09;5053632;28;20084;-69
2022/07/22 10:00:13;;;;;;;8.02;3.72;;;22.00;99.90;;;22.16;55.91;102013.84;5054041;28;20057;-70
2022/07/22 10:02:47;;;;;;;4.43;3.50;;;22.00;99.90;;;22.11;56.15;102019.38;5055311;28;20049;-69
2022/07/22 10:05:19;;;;;;;6.88;3.78;;;21.70;99.90;;;22.02;57.14;102014.31;5053611;28;20410;-69
2022/07/22 10:07:49;;;;;;;4.90;3.35;;;21.60;99.90;;;21.76;56.91;102016.94;5055263;28;20064;-69
2022/07/22 10:10:20;;;;;;;6.13;3.60;;;21.60;99.90;;;22.27;55.91;102017.06;5054737;28;20044;-69
2022/07/22 10:12:51;;;;;;;6.85;3.70;;;21.70;99.90;;;21.77;56.87;102024.09;5053560;28;20049;-70
2022/07/22 10:15:23;;;;;;;6.97;3.88;;;21.60;99.90;;;20.84;58.86;101846.69;5069724;28;20102;-69
2022/07/22 10:17:58;;;;;;;6.22;3.92;;;21.30;99.90;;;22.32;59.44;102015.97;5053348;28;20075;-69
2022/07/22 10:20:31;;;;;;;8.63;3.85;;;21.80;99.90;;;22.69;59.01;102020.06;5069970;28;20068;-69
2022/07/22 10:23:03;;;;;;;6.60;3.33;;;22.20;99.90;;;22.93;57.05;102030.00;5053065;28;20482;-69
2022/07/22 10:25:52;;;;;;;6.68;3.85;;;22.50;99.90;;;23.12;56.95;102031.97;5052979;28;20053;-69
2022/07/22 10:28:25;;;;;;;5.75;3.55;;;22.70;99.90;;;23.09;56.54;102005.06;5053063;28;20076;-69
2022/07/22 10:31:18;;;;;;;6.65;3.38;;;23.00;99.90;;;23.27;56.21;102025.06;5053934;28;20041;-69